createdAt,value
2018-05-24T00:00:50.202Z,24.10
2018-05-24T00:03:22.123Z,23.80
2018-05-24T00:05:52.822Z,24.40
2018-05-24T00:08:20.846Z,23.80
2018-05-24T00:10:53.485Z,24.20
2018-05-24T00:13:23.482Z,25.13
2018-05-24T00:15:51.530Z,25.50
2018-05-24T00:18:20.574Z,25.87
2018-05-24T00:20:51.279Z,24.30
2018-05-24T00:23:24.802Z,25.10
2018-05-24T00:25:53.586Z,25.60
2018-05-24T00:28:22.391Z,23.70
2018-05-24T00:30:56.653Z,24.47
2018-05-24T00:33:28.706Z,26.67
2018-05-24T00:35:57.657Z,26.50
2018-05-24T00:38:25.677Z,28.10
2018-05-24T00:40:54.688Z,27.70
2018-05-24T00:43:22.774Z,27.63
2018-05-24T00:45:51.564Z,29.47
2018-05-24T00:48:23.708Z,28.93
2018-05-24T00:50:55.353Z,28.10
2018-05-24T00:53:29.129Z,26.60
2018-05-24T00:55:58.160Z,29.40
2018-05-24T00:58:27.165Z,28.33
2018-05-24T01:00:57.001Z,27.77
2018-05-24T01:03:26.969Z,28.30
2018-05-24T01:05:54.994Z,29.70
2018-05-24T01:08:28.448Z,29.97
2018-05-24T01:13:53.661Z,28.70
2018-05-24T01:16:29.809Z,27.87
2018-05-24T01:19:03.616Z,27.90
2018-05-24T01:21:35.569Z,26.70
2018-05-24T01:24:03.620Z,27.10
2018-05-24T01:26:34.924Z,27.50
2018-05-24T01:29:02.965Z,28.63
2018-05-24T01:31:41.865Z,27.93
2018-05-24T01:34:15.793Z,26.77
2018-05-24T01:36:57.697Z,28.00
2018-05-24T01:39:29.513Z,26.90
2018-05-24T01:41:58.578Z,27.03
2018-05-24T01:44:30.849Z,25.97
2018-05-24T01:47:01.641Z,26.90
2018-05-24T01:49:29.657Z,26.47
2018-05-24T01:51:58.477Z,25.90
2018-05-24T01:54:26.501Z,27.47
2018-05-24T01:57:00.525Z,24.80
2018-05-24T01:59:31.249Z,27.90
2018-05-24T02:02:09.245Z,27.20
2018-05-24T02:04:42.246Z,27.17
2018-05-24T02:07:11.073Z,26.13
2018-05-24T02:09:40.094Z,26.23
2018-05-24T02:12:10.122Z,26.97
2018-05-24T02:14:40.049Z,25.87
2018-05-24T02:17:09.049Z,25.40
2018-05-24T02:19:43.573Z,28.50
2018-05-24T02:22:16.333Z,26.83
2018-05-24T02:24:44.765Z,26.47
2018-05-24T02:27:16.997Z,28.37
2018-05-24T02:29:48.845Z,26.70
2018-05-24T02:32:24.251Z,28.70
2018-05-24T02:34:52.309Z,29.13
2018-05-24T02:37:20.329Z,26.70
2018-05-24T02:39:48.353Z,28.43
2018-05-24T02:42:20.361Z,28.23
2018-05-24T02:44:49.341Z,28.40
2018-05-24T02:47:17.374Z,28.17
2018-05-24T02:49:46.333Z,27.47
2018-05-24T02:52:16.105Z,26.03
2018-05-24T02:54:47.298Z,26.93
2018-05-24T02:57:19.953Z,28.10
2018-05-24T02:59:53.554Z,29.83
2018-05-24T03:02:21.578Z,29.00
2018-05-24T03:04:51.541Z,30.07
2018-05-24T03:07:23.921Z,30.37
2018-05-24T03:09:54.642Z,29.40
2018-05-24T03:12:26.302Z,33.03
2018-05-24T03:14:55.285Z,31.83
2018-05-24T03:17:23.313Z,31.07
2018-05-24T03:19:53.281Z,31.53
2018-05-24T03:22:22.062Z,32.67
2018-05-24T03:24:51.062Z,33.20
2018-05-24T03:27:19.081Z,30.63
2018-05-24T03:29:51.801Z,30.40
2018-05-24T03:32:19.853Z,30.47
2018-05-24T03:34:47.894Z,30.83
2018-05-24T03:37:16.829Z,32.00
2018-05-24T03:39:46.833Z,29.37
2018-05-24T03:42:23.081Z,28.70
2018-05-24T03:44:53.045Z,29.90
2018-05-24T03:47:21.872Z,28.93
2018-05-24T03:49:55.621Z,29.00
2018-05-24T03:52:24.581Z,29.00
2018-05-24T03:54:52.622Z,28.57
2018-05-24T03:57:22.589Z,27.80
2018-05-24T04:00:03.160Z,27.27
2018-05-24T04:02:43.784Z,25.10
2018-05-24T04:05:16.604Z,23.80
2018-05-24T04:07:48.173Z,23.70
2018-05-24T04:10:20.834Z,26.73
2018-05-24T04:12:48.885Z,25.30
2018-05-24T04:15:18.928Z,25.60
2018-05-24T04:17:46.961Z,23.83
2018-05-24T04:20:19.477Z,23.77
2018-05-24T04:22:53.800Z,20.13
2018-05-24T04:25:22.617Z,22.67
2018-05-24T04:27:53.916Z,20.73
2018-05-24T04:30:22.949Z,17.30
2018-05-24T04:32:51.709Z,16.90
2018-05-24T04:35:21.497Z,15.87
2018-05-24T04:37:49.548Z,19.27
2018-05-24T04:40:30.010Z,19.10
2018-05-24T04:43:03.072Z,19.10
2018-05-24T04:45:33.079Z,19.20
2018-05-24T04:48:04.692Z,19.80
2018-05-24T04:50:33.688Z,19.20
2018-05-24T04:53:02.677Z,19.30
2018-05-24T04:55:31.337Z,18.93
2018-05-24T04:58:01.267Z,18.97
2018-05-24T05:00:34.380Z,20.17
2018-05-24T05:03:04.368Z,18.80
2018-05-24T05:05:32.381Z,20.10
2018-05-24T05:08:03.076Z,20.73
2018-05-24T05:10:32.065Z,20.20
2018-05-24T05:13:03.836Z,18.80
2018-05-24T05:15:31.857Z,19.47
2018-05-24T05:17:59.872Z,18.10
2018-05-24T05:20:27.908Z,17.00
2018-05-24T05:22:56.924Z,20.20
2018-05-24T05:25:25.931Z,17.43
2018-05-24T05:27:53.956Z,16.23
2018-05-24T05:30:29.160Z,16.97
2018-05-24T05:33:08.320Z,17.60
2018-05-24T05:35:42.432Z,17.80
2018-05-24T05:38:11.515Z,18.43
2018-05-24T05:40:44.136Z,17.33
2018-05-24T05:43:17.949Z,16.60
2018-05-24T05:45:54.377Z,16.17
2018-05-24T05:48:24.076Z,17.17
2018-05-24T05:50:54.021Z,14.30
2018-05-24T05:53:23.026Z,14.43
2018-05-24T05:55:51.957Z,13.33
2018-05-24T05:58:23.268Z,12.90
2018-05-24T06:00:54.917Z,13.10
2018-05-24T06:03:46.608Z,13.77
2018-05-24T06:06:16.370Z,11.30
2018-05-24T06:08:46.364Z,11.60
2018-05-24T06:11:30.873Z,7.93
2018-05-24T06:14:11.485Z,9.97
2018-05-24T06:17:03.589Z,9.47
2018-05-24T06:19:31.625Z,8.27
2018-05-24T06:22:04.133Z,8.43
2018-05-24T06:24:32.141Z,6.60
2018-05-24T06:27:00.381Z,6.40
2018-05-24T06:38:31.220Z,7.23
2018-05-24T06:41:02.373Z,7.47
2018-05-24T06:43:31.325Z,6.07
2018-05-24T06:46:02.803Z,6.37
2018-05-24T06:48:35.657Z,5.97
2018-05-24T06:51:08.302Z,6.17
2018-05-24T06:53:36.361Z,6.03
2018-05-24T06:56:05.976Z,5.60
2018-05-24T06:58:39.307Z,5.40
2018-05-24T07:01:09.584Z,6.30
2018-05-24T07:03:37.605Z,6.57
2018-05-24T07:06:07.590Z,5.33
2018-05-24T07:08:36.944Z,5.00
2018-05-24T07:11:05.052Z,6.10
2018-05-24T07:13:32.988Z,6.43
2018-05-24T07:16:13.656Z,6.80
2018-05-24T07:18:43.656Z,8.13
2018-05-24T07:21:13.665Z,8.67
2018-05-24T07:26:39.936Z,9.40
2018-05-24T07:29:08.881Z,11.90
2018-05-24T07:31:42.545Z,10.97
2018-05-24T07:34:16.532Z,11.13
2018-05-24T07:36:45.481Z,11.00
2018-05-24T07:39:20.401Z,10.87
2018-05-24T07:41:52.760Z,10.97
2018-05-24T07:44:22.764Z,11.03
2018-05-24T07:46:53.528Z,10.73
2018-05-24T07:49:21.556Z,10.83
2018-05-24T07:51:51.568Z,11.00
2018-05-24T07:54:43.096Z,10.60
2018-05-24T07:57:25.100Z,10.60
2018-05-24T07:59:59.740Z,10.90
2018-05-24T08:02:28.696Z,11.80
2018-05-24T08:05:01.182Z,11.10
2018-05-24T08:07:32.240Z,11.67
2018-05-24T08:10:03.832Z,12.80
2018-05-24T08:12:33.788Z,11.87
2018-05-24T08:15:02.712Z,13.23
2018-05-24T08:17:32.837Z,13.37
2018-05-24T08:22:56.491Z,12.50
2018-05-24T08:25:32.936Z,12.10
2018-05-24T08:28:02.964Z,12.17
2018-05-24T08:30:54.228Z,11.03
2018-05-24T08:36:24.496Z,10.10
2018-05-24T08:41:46.786Z,8.23
2018-05-24T08:47:15.954Z,5.93
2018-05-24T08:49:47.008Z,7.00
2018-05-24T09:07:24.564Z,7.97
2018-05-24T09:15:56.376Z,10.20
2018-05-24T09:21:17.472Z,11.83
2018-05-24T09:32:28.172Z,10.70
2018-05-24T09:43:49.820Z,10.83
2018-05-24T09:54:59.463Z,10.97
2018-05-24T09:57:33.773Z,11.40
2018-05-24T10:00:10.204Z,11.30
2018-05-24T10:02:58.512Z,11.30
2018-05-24T10:05:34.004Z,11.73
2018-05-24T10:11:01.968Z,13.27
2018-05-24T10:13:39.015Z,13.00
2018-05-24T10:16:14.599Z,14.73
2018-05-24T10:18:46.927Z,15.33
2018-05-24T10:21:33.346Z,13.57
2018-05-24T10:24:25.652Z,13.33
2018-05-24T10:30:04.875Z,15.00
2018-05-24T10:32:33.959Z,15.47
2018-05-24T10:35:21.126Z,14.73
2018-05-24T10:43:38.476Z,16.07
2018-05-24T10:49:01.807Z,14.90
2018-05-24T10:51:33.675Z,15.00
2018-05-24T10:54:12.887Z,13.97
2018-05-24T10:56:51.863Z,14.53
2018-05-24T11:02:32.743Z,13.53
2018-05-24T11:05:02.771Z,14.27
2018-05-24T11:07:33.151Z,14.23
2018-05-24T11:10:06.883Z,16.97
2018-05-24T11:15:34.519Z,15.53
2018-05-24T11:18:04.555Z,15.67
2018-05-24T11:20:34.507Z,17.43
2018-05-24T11:23:02.863Z,16.20
2018-05-24T11:25:33.847Z,18.57
2018-05-24T11:28:10.223Z,18.50
2018-05-24T11:30:47.282Z,18.33
2018-05-24T11:33:16.458Z,19.00
2018-05-24T11:35:45.400Z,19.13
2018-05-24T11:38:26.535Z,19.73
2018-05-24T11:40:56.587Z,17.90
2018-05-24T11:43:25.728Z,19.20
2018-05-24T11:45:55.708Z,17.37
2018-05-24T11:48:26.016Z,18.83
2018-05-24T11:51:12.754Z,17.83
2018-05-24T11:53:48.946Z,16.00
2018-05-24T11:56:22.262Z,14.37
2018-05-24T11:58:57.703Z,13.93
2018-05-24T12:01:25.775Z,12.20
2018-05-24T12:03:54.746Z,12.93
2018-05-24T12:06:22.770Z,15.27
2018-05-24T12:09:03.511Z,13.73
2018-05-24T12:11:36.385Z,13.43
2018-05-24T12:14:04.627Z,13.30
2018-05-24T12:16:34.602Z,15.30
2018-05-24T12:19:07.215Z,13.83
2018-05-24T12:21:40.578Z,13.63
2018-05-24T12:24:14.246Z,10.90
2018-05-24T12:26:48.864Z,12.30
2018-05-24T12:29:16.939Z,12.20
2018-05-24T12:31:45.942Z,13.00
2018-05-24T12:34:18.194Z,12.90
2018-05-24T12:36:49.222Z,13.03
2018-05-24T12:39:29.066Z,12.37
2018-05-24T12:41:58.850Z,9.70
2018-05-24T12:44:28.815Z,7.80
2018-05-24T12:46:58.802Z,8.03
2018-05-24T12:49:27.798Z,7.80
2018-05-24T12:52:00.294Z,5.77
2018-05-24T12:54:35.899Z,6.20
2018-05-24T12:57:18.706Z,5.43
2018-05-24T12:59:50.114Z,5.30
2018-05-24T13:02:19.258Z,7.03
2018-05-24T13:04:49.906Z,7.83
2018-05-24T13:07:19.944Z,7.00
2018-05-24T13:09:48.976Z,6.20
2018-05-24T13:12:17.726Z,7.03
2018-05-24T13:14:46.713Z,6.77
2018-05-24T13:17:19.274Z,7.00
2018-05-24T13:19:52.378Z,7.07
2018-05-24T13:22:21.362Z,7.17
2018-05-24T13:24:49.367Z,5.27
2018-05-24T13:27:18.166Z,5.80
2018-05-24T13:29:48.846Z,4.80
2018-05-24T13:32:16.866Z,5.17
2018-05-24T13:34:45.666Z,5.10
2018-05-24T13:37:18.698Z,5.00
2018-05-24T13:39:55.242Z,4.50
2018-05-24T13:42:26.854Z,5.20
2018-05-24T13:44:55.991Z,4.13
2018-05-24T13:47:25.918Z,4.60
2018-05-24T13:49:58.003Z,5.20
2018-05-24T13:52:27.667Z,5.20
2018-05-24T13:55:01.342Z,4.30
2018-05-24T13:57:44.334Z,3.90
2018-05-24T14:00:19.913Z,3.13
2018-05-24T14:02:49.706Z,3.57
2018-05-24T14:05:18.682Z,4.07
2018-05-24T14:07:53.330Z,3.20
2018-05-24T14:10:22.086Z,3.67
2018-05-24T14:12:51.118Z,4.20
2018-05-24T14:15:20.843Z,4.30
2018-05-24T14:17:50.614Z,4.50
2018-05-24T14:20:21.346Z,4.10
2018-05-24T14:22:55.314Z,3.73
2018-05-24T14:25:25.257Z,3.70
2018-05-24T14:27:57.119Z,4.30
2018-05-24T14:30:30.114Z,3.67
2018-05-24T14:32:58.114Z,3.20
2018-05-24T14:35:26.885Z,3.40
2018-05-24T14:37:54.903Z,3.53
2018-05-24T14:40:31.082Z,3.20
2018-05-24T14:42:59.089Z,3.70
2018-05-24T14:45:30.186Z,3.23
2018-05-24T14:48:00.134Z,3.70
2018-05-24T14:50:34.773Z,4.00
2018-05-24T14:53:29.598Z,3.83
2018-05-24T14:56:04.050Z,4.00
2018-05-24T14:58:34.006Z,4.20
2018-05-24T15:01:02.029Z,4.67
2018-05-24T15:03:33.710Z,4.60
2018-05-24T15:06:02.122Z,3.40
2018-05-24T15:08:30.310Z,4.70
2018-05-24T15:11:13.258Z,4.43
2018-05-24T15:13:50.206Z,4.83
2018-05-24T15:16:19.170Z,4.00
2018-05-24T15:19:04.982Z,5.13
2018-05-24T15:21:33.930Z,4.73
2018-05-24T15:24:01.951Z,4.60
2018-05-24T15:26:29.953Z,4.80
2018-05-24T15:28:58.971Z,4.70
2018-05-24T15:31:26.985Z,5.20
2018-05-24T15:33:54.993Z,5.37
2018-05-24T15:36:36.041Z,4.57
2018-05-24T15:39:07.318Z,4.67
2018-05-24T15:41:36.322Z,3.97
2018-05-24T15:44:05.313Z,3.87
2018-05-24T15:46:37.674Z,3.33
2018-05-24T15:49:05.762Z,3.53
2018-05-24T15:51:36.923Z,2.47
2018-05-24T15:54:09.413Z,2.90
2018-05-24T15:56:40.405Z,2.40
2018-05-24T15:59:16.029Z,2.50
2018-05-24T16:01:44.053Z,2.47
2018-05-24T16:04:15.801Z,2.90
2018-05-24T16:06:47.633Z,2.17
2018-05-24T16:09:21.153Z,2.27
2018-05-24T16:12:01.389Z,2.40
2018-05-24T16:14:35.221Z,3.03
2018-05-24T16:17:12.257Z,2.83
2018-05-24T16:19:44.745Z,3.00
2018-05-24T16:22:18.633Z,2.90
2018-05-24T16:24:47.673Z,2.30
2018-05-24T16:27:17.681Z,2.53
2018-05-24T16:29:46.650Z,2.30
2018-05-24T16:32:20.737Z,2.90
2018-05-24T16:34:51.845Z,3.30
2018-05-24T16:37:24.717Z,3.30
2018-05-24T16:40:05.258Z,2.50
2018-05-24T16:42:47.505Z,3.07
2018-05-24T16:48:20.334Z,3.33
2018-05-24T16:51:06.562Z,2.90
2018-05-24T16:56:41.830Z,2.60
2018-05-24T17:02:28.597Z,3.10
2018-05-24T17:05:06.130Z,3.40
2018-05-24T17:10:31.469Z,3.33
2018-05-24T17:13:12.685Z,3.23
2018-05-24T17:15:42.454Z,3.43
2018-05-24T17:21:24.986Z,3.50
2018-05-24T17:29:46.146Z,3.43
2018-05-24T17:32:22.170Z,3.37
2018-05-24T17:37:47.209Z,4.10
2018-05-24T17:43:21.889Z,3.90
2018-05-24T17:51:54.904Z,4.13
2018-05-24T17:54:33.869Z,4.23
2018-05-24T17:57:12.716Z,4.83
2018-05-24T18:00:04.722Z,5.13
2018-05-24T18:02:32.760Z,4.80
2018-05-24T18:05:05.605Z,5.03
2018-05-24T18:10:30.420Z,5.37
2018-05-24T18:13:22.009Z,5.67
2018-05-24T18:15:53.697Z,5.53
2018-05-24T18:35:45.749Z,5.50
2018-05-24T18:41:27.277Z,6.60
2018-05-24T18:44:01.321Z,7.10
2018-05-24T18:46:31.117Z,6.60
2018-05-24T18:49:19.749Z,6.93
2018-05-24T18:51:54.761Z,7.87
2018-05-24T18:57:19.690Z,7.30
2018-05-24T19:00:01.905Z,7.17
2018-05-24T19:02:42.944Z,7.27
2018-05-24T19:08:12.732Z,8.13
2018-05-24T19:10:55.549Z,7.90
2018-05-24T19:16:37.989Z,9.10
2018-05-24T19:19:06.929Z,9.90
2018-05-24T19:21:38.685Z,9.43
2018-05-24T19:24:19.825Z,9.07
2018-05-24T19:26:48.917Z,10.50
2018-05-24T19:29:17.081Z,12.03
2018-05-24T19:32:03.052Z,11.10
2018-05-24T19:34:33.001Z,11.17
2018-05-24T19:37:01.037Z,11.47
2018-05-24T19:39:31.745Z,11.40
2018-05-24T19:42:01.754Z,11.97
2018-05-24T19:44:30.741Z,12.33
2018-05-24T19:47:03.741Z,11.00
2018-05-24T19:49:39.449Z,11.73
2018-05-24T19:52:08.473Z,11.30
2018-05-24T19:54:50.801Z,10.50
2018-05-24T19:57:39.161Z,12.37
2018-05-24T20:00:09.153Z,12.20
2018-05-24T20:02:38.129Z,12.30
2018-05-24T20:05:09.777Z,12.50
2018-05-24T20:07:39.812Z,11.70
2018-05-24T20:10:11.697Z,12.07
2018-05-24T20:12:40.493Z,13.37
2018-05-24T20:15:12.821Z,12.60
2018-05-24T20:17:42.849Z,13.13
2018-05-24T20:20:10.905Z,12.60
2018-05-24T20:22:38.937Z,12.33
2018-05-24T20:25:08.700Z,13.00
2018-05-24T20:27:41.204Z,13.70
2018-05-24T20:30:13.248Z,15.30
2018-05-24T20:32:48.125Z,13.00
2018-05-24T20:35:18.084Z,13.53
2018-05-24T20:37:51.175Z,13.73
2018-05-24T20:40:19.185Z,14.13
2018-05-24T20:42:48.223Z,14.53
2018-05-24T20:45:27.443Z,15.33
2018-05-24T20:47:57.475Z,15.93
2018-05-24T20:50:37.049Z,15.70
2018-05-24T20:53:14.887Z,15.03
2018-05-24T20:55:43.923Z,16.50
2018-05-24T20:58:13.747Z,15.90
2018-05-24T21:00:43.524Z,15.87
2018-05-24T21:03:21.291Z,15.27
2018-05-24T21:05:49.331Z,16.10
2018-05-24T21:08:19.307Z,14.60
2018-05-24T21:10:47.327Z,15.03
2018-05-24T21:13:17.324Z,15.90
2018-05-24T21:15:46.139Z,14.50
2018-05-24T21:18:16.115Z,16.90
2018-05-24T21:20:44.139Z,15.40
2018-05-24T21:23:12.167Z,16.07
2018-05-24T21:25:40.975Z,15.30
2018-05-24T21:28:08.992Z,16.43
2018-05-24T21:30:43.343Z,16.00
2018-05-24T21:33:16.975Z,16.10
2018-05-24T21:35:45.761Z,15.50
2018-05-24T21:38:35.663Z,17.03
2018-05-24T21:41:03.707Z,14.93
2018-05-24T21:43:31.738Z,16.97
2018-05-24T21:45:59.763Z,16.90
2018-05-24T21:48:35.635Z,15.77
2018-05-24T21:51:03.673Z,15.60
2018-05-24T21:53:39.340Z,15.80
2018-05-24T21:56:09.268Z,14.23
2018-05-24T21:58:40.735Z,14.13
2018-05-24T22:01:08.791Z,14.90
2018-05-24T22:03:40.379Z,15.17
2018-05-24T22:06:10.188Z,15.90
2018-05-24T22:08:40.928Z,15.67
2018-05-24T22:11:09.724Z,15.93
2018-05-24T22:13:39.504Z,17.10
2018-05-24T22:16:07.540Z,17.00
2018-05-24T22:18:39.960Z,17.43
2018-05-24T22:21:26.409Z,18.13
2018-05-24T22:24:05.752Z,17.60
2018-05-24T22:29:34.708Z,17.30
2018-05-24T22:35:06.428Z,17.30
2018-05-24T22:38:00.236Z,18.93
2018-05-24T22:40:40.688Z,18.93
2018-05-24T22:43:19.823Z,19.50
2018-05-24T22:45:56.808Z,17.70
2018-05-24T22:48:36.323Z,18.57
2018-05-24T22:54:02.395Z,17.87
2018-05-24T22:56:30.407Z,19.27
2018-05-24T22:59:00.375Z,18.57
2018-05-24T23:01:29.367Z,21.60
2018-05-24T23:03:57.399Z,19.77
2018-05-24T23:06:25.427Z,21.10
2018-05-24T23:08:54.351Z,20.20
2018-05-24T23:11:25.755Z,19.07
2018-05-24T23:13:58.140Z,20.43
2018-05-24T23:16:31.317Z,19.47
2018-05-24T23:19:16.831Z,20.70
2018-05-24T23:21:57.827Z,20.27
2018-05-24T23:24:33.880Z,19.73
2018-05-24T23:27:16.396Z,19.13
2018-05-24T23:32:40.428Z,20.20
2018-05-24T23:35:30.275Z,20.30
2018-05-24T23:38:08.119Z,19.77
2018-05-24T23:40:39.255Z,19.80
2018-05-24T23:43:11.400Z,20.93
2018-05-24T23:45:39.427Z,20.77
2018-05-24T23:48:07.460Z,19.87
2018-05-24T23:50:38.192Z,21.03
2018-05-24T23:56:24.188Z,20.47
2018-05-24T23:58:54.224Z,20.90
